Carroll, IA

8:34 AM CDT on September 22, 2014 (GMT -0500)
Arcadia | Change Station
CLOSE
Current Station
Personal Weather Station
Location: Arcadia, IA
Elevation: 1447 ft
Nearby Weather Stations

Elev 1447 ft 42.07 °N, 95.03 °W | Updated 1 hour ago

Clear
Clear
46.9 °F
Feels Like 46 °F
N
3.2
Wind Variable Wind from WSW

Today
High -- | Low -- °F
--% Chance of Precip.
Yesterday
High -- | Low -- °F
Precip. -- in
7:06 AM 7:16 PM
Waning Crescent, 3% visible
Pressure 30.32 in
Visibility 10.0 miles
Clouds Clear
Windchill 46 °F
Dew Point 47 °F
Humidity 99%
Rainfall 0.00 in
Snow Depth Not available.
UV 1 out of 12
Pollen 4.50 out of 12
Air Quality Not available.
Flu Activity Not available.
METAR KCIN 221315Z AUTO 00000KT 10SM CLR 08/08 A3032 RMK AO2

More Conditions Fewer Conditions

Pressure 30.32 in
Visibility 10.0 miles
Clouds Clear
Windchill 46 °F
Dew Point 47 °F
Humidity 99%
Rainfall 0.00 in
Snow Depth Not available.
UV 1 out of 12
Pollen 4.50 out of 12
Air Quality Not available.
Flu Activity Not available.
METAR KCIN 221315Z AUTO 00000KT 10SM CLR 08/08 A3032 RMK AO2

More Conditions Fewer Conditions

10-Day Weather Forecast

Almanac

Astronomy

Sep. 22, 2014 Rise Set
Actual Time 7:06 AM CDT 7:16 PM CDT
Civil Twilight 6:38 AM CDT 7:44 PM CDT
Nautical Twilight 6:06 AM CDT 8:17 PM CDT
Astronomical Twilight 5:32 AM CDT 8:50 PM CDT
Moon 5:35 AM CDT 6:25 PM CDT
Length of Visible Light 13h 05m
Length of Day
12h 09m
Tomorrow will be 2m 48s shorter.
Waning Crescent, 3% of the Moon is Illuminated
Today
Waning Crescent
Sep 24
New
Oct 1
First Quarter
Oct 8
Full
Oct 15
Last Quarter

Today's Extremes

State Highs State Lows

Community

WunderPhotos

Upload Photos

1,755,429 photos uploaded!

WunderBlogs® & News

Nearby

Snow Depth

Station Depth Elevation
No new snow has been reported.

Earthquake Activity

City Distance Mag. Time & Date
No recent earthquake activity has been reported nearby.
Minimum magnitude displayed is 2.5.

Coastal Water Temperatures

Place Temperature
No Stations Reporting

Nearby Weather Stations